Terminal Aerodrome Forecast
Issued by NWS

Home | Current Version | Previous Version | Text Only | Print | Product List | Glossary Off
Versions: 1 2 3 4 5 6 7 8 9 10 11 12 13 14 15 16 17 18 19

000
FTUS43 KOAX 222008 AAA
TAFCDR
TAF AMD
KCDR 222008Z 2220/2318 16014G21KT P6SM OVC070
      TEMPO 2220/2222 6SM -RA OVC025
     FM230200 14012KT P6SM OVC040
     FM230600 14010KT P6SM OVC025
     FM231500 14010KT P6SM BKN035=

USA.gov is the U.S. government's official web portal to all federal, state and local government web resources and services.